Time;durP1;ratioP1;P1;durP2;ratioP2;P2;SDS_P1;SDS_P2;PMS_P1;PMS_P2;Temp;Humidity;BMP_temperature;BMP_pressure;BME280_temperature;BME280_humidity;BME280_pressure;Samples;Min_cycle;Max_cycle;Signal;HPM_P1;HPM_P2
2024/01/08 00:01:36;;;;;;;2.20;1.33;;;;;;;;;;5132609;27;20036;-81
2024/01/08 00:04:03;;;;;;;3.40;1.52;;;;;;;;;;5135613;27;20087;-81
2024/01/08 00:06:29;;;;;;;3.05;1.50;;;;;;;;;;5129356;27;20044;-81
2024/01/08 00:08:55;;;;;;;3.40;1.90;;;;;;;;;;5132623;27;20071;-80
2024/01/08 00:11:21;;;;;;;2.85;1.88;;;;;;;;;;5129241;27;20035;-81
2024/01/08 00:13:47;;;;;;;4.05;1.40;;;;;;;;;;5114954;27;20111;-81
2024/01/08 00:16:13;;;;;;;3.25;1.60;;;;;;;;;;5137765;27;20067;-81
2024/01/08 00:18:39;;;;;;;3.40;2.10;;;;;;;;;;5117305;27;20039;-80
2024/01/08 00:21:05;;;;;;;3.67;1.90;;;;;;;;;;5134921;27;20088;-80
2024/01/08 00:23:35;;;;;;;2.55;1.95;;;;;;;;;;5134699;27;20035;-81
2024/01/08 00:26:02;;;;;;;3.17;1.63;;;;;;;;;;5135416;27;20051;-81
2024/01/08 00:28:28;;;;;;;3.03;1.45;;;;;;;;;;5132813;27;20040;-81
2024/01/08 00:30:54;;;;;;;2.88;1.42;;;;;;;;;;5138224;27;20035;-81
2024/01/08 00:33:20;;;;;;;2.72;1.75;;;;;;;;;;5136087;27;20039;-80
2024/01/08 00:35:46;;;;;;;1.70;1.30;;;;;;;;;;5134877;27;20081;-80
2024/01/08 00:38:12;;;;;;;1.52;1.00;;;;;;;;;;5135401;27;20511;-81
2024/01/08 00:40:38;;;;;;;4.45;1.70;;;;;;;;;;5130819;27;20035;-80
2024/01/08 00:43:04;;;;;;;2.50;1.55;;;;;;;;;;5131976;27;20035;-80
2024/01/08 00:45:30;;;;;;;2.85;1.80;;;;;;;;;;5124885;27;20043;-83
2024/01/08 00:47:56;;;;;;;3.38;1.60;;;;;;;;;;5133067;27;20140;-80
2024/01/08 00:50:23;;;;;;;3.03;1.50;;;;;;;;;;5131699;27;20097;-81
2024/01/08 00:52:49;;;;;;;3.78;1.90;;;;;;;;;;5127145;27;20043;-81
2024/01/08 00:55:15;;;;;;;2.90;1.52;;;;;;;;;;5128402;27;20138;-81
2024/01/08 00:57:41;;;;;;;2.08;1.30;;;;;;;;;;5124804;27;20047;-81
2024/01/08 01:00:08;;;;;;;2.95;1.70;;;;;;;;;;5129061;27;20423;-81
2024/01/08 01:02:35;;;;;;;4.05;2.15;;;;;;;;;;5129601;27;20043;-80
2024/01/08 01:05:01;;;;;;;3.20;1.83;;;;;;;;;;5128329;27;20095;-83
2024/01/08 01:07:27;;;;;;;3.88;1.88;;;;;;;;;;5126170;27;20054;-81
2024/01/08 01:09:53;;;;;;;5.38;2.40;;;;;;;;;;5114350;27;20041;-80
2024/01/08 01:12:19;;;;;;;4.20;2.10;;;;;;;;;;5126573;27;20135;-80
2024/01/08 01:14:45;;;;;;;3.28;1.70;;;;;;;;;;5128634;27;20138;-81
2024/01/08 01:17:11;;;;;;;8.02;1.85;;;;;;;;;;5133132;27;20035;-80
2024/01/08 01:19:37;;;;;;;3.22;1.70;;;;;;;;;;5128753;27;20035;-80
2024/01/08 01:22:03;;;;;;;3.22;2.38;;;;;;;;;;5138431;27;20027;-81
2024/01/08 01:24:29;;;;;;;3.60;2.22;;;;;;;;;;5125127;27;20100;-81
2024/01/08 01:26:55;;;;;;;3.55;2.30;;;;;;;;;;5127664;27;20479;-81
2024/01/08 01:29:21;;;;;;;3.45;1.65;;;;;;;;;;5129899;27;20035;-81
2024/01/08 01:31:47;;;;;;;5.60;3.58;;;;;;;;;;5132874;27;20752;-80
2024/01/08 01:34:13;;;;;;;3.28;1.83;;;;;;;;;;5133926;27;20032;-80
2024/01/08 01:36:39;;;;;;;4.30;1.95;;;;;;;;;;5136828;27;20407;-80
2024/01/08 01:39:06;;;;;;;3.80;2.40;;;;;;;;;;5135145;27;20023;-80
2024/01/08 01:41:33;;;;;;;4.82;1.90;;;;;;;;;;5136758;27;20051;-80
2024/01/08 01:43:59;;;;;;;3.50;2.03;;;;;;;;;;5132861;27;20047;-80
2024/01/08 01:46:27;;;;;;;4.38;1.98;;;;;;;;;;5131550;27;20039;-80
2024/01/08 01:48:53;;;;;;;4.68;2.13;;;;;;;;;;5134934;27;20040;-81
2024/01/08 01:51:19;;;;;;;5.18;2.45;;;;;;;;;;5134730;27;20492;-81
2024/01/08 01:53:46;;;;;;;5.45;2.42;;;;;;;;;;5133558;27;20174;-81
2024/01/08 01:56:12;;;;;;;4.93;2.67;;;;;;;;;;5133568;27;20035;-80
2024/01/08 01:58:38;;;;;;;5.72;2.55;;;;;;;;;;5133704;27;20126;-81
2024/01/08 02:01:04;;;;;;;2.65;1.52;;;;;;;;;;5131704;27;20039;-81
2024/01/08 02:03:31;;;;;;;3.10;2.00;;;;;;;;;;5129262;27;20047;-81
2024/01/08 02:05:57;;;;;;;2.95;1.88;;;;;;;;;;5128925;27;20062;-80
2024/01/08 02:08:23;;;;;;;4.50;2.20;;;;;;;;;;5136444;27;20036;-80
2024/01/08 02:10:49;;;;;;;2.33;1.58;;;;;;;;;;5135307;27;20049;-80
2024/01/08 02:13:15;;;;;;;4.53;2.58;;;;;;;;;;5132475;28;20090;-80
2024/01/08 02:15:41;;;;;;;3.03;1.63;;;;;;;;;;5110936;28;20172;-80
2024/01/08 02:18:07;;;;;;;3.33;2.25;;;;;;;;;;5126937;27;20502;-80
2024/01/08 02:20:33;;;;;;;4.70;3.00;;;;;;;;;;5131498;28;20043;-80
2024/01/08 02:22:59;;;;;;;4.57;2.42;;;;;;;;;;5131273;28;20055;-80
2024/01/08 02:25:26;;;;;;;5.60;3.10;;;;;;;;;;5138859;27;20043;-81
2024/01/08 02:27:52;;;;;;;5.55;2.20;;;;;;;;;;5139105;27;20043;-80
2024/01/08 02:30:18;;;;;;;6.53;2.47;;;;;;;;;;5142844;27;20035;-80
2024/01/08 02:32:44;;;;;;;5.03;2.80;;;;;;;;;;5138776;27;20060;-80
2024/01/08 02:35:10;;;;;;;5.38;2.60;;;;;;;;;;5136320;27;20035;-80
2024/01/08 02:37:36;;;;;;;4.65;2.40;;;;;;;;;;5133209;27;20043;-80
2024/01/08 02:40:03;;;;;;;3.85;2.13;;;;;;;;;;5142582;27;20044;-80
2024/01/08 02:42:29;;;;;;;4.40;2.47;;;;;;;;;;5120313;27;20039;-80
2024/01/08 02:44:55;;;;;;;2.90;1.95;;;;;;;;;;5138390;27;20137;-80
2024/01/08 02:47:21;;;;;;;6.93;2.90;;;;;;;;;;5135243;27;20031;-80
2024/01/08 02:49:47;;;;;;;5.28;2.95;;;;;;;;;;5136008;27;20032;-80
2024/01/08 02:52:13;;;;;;;4.20;2.55;;;;;;;;;;5136682;27;20038;-80
2024/01/08 02:54:39;;;;;;;6.05;3.17;;;;;;;;;;5138593;27;20043;-80
2024/01/08 02:57:05;;;;;;;3.80;2.45;;;;;;;;;;5138245;27;20070;-80
2024/01/08 02:59:30;;;;;;;5.25;2.95;;;;;;;;;;5135483;27;20035;-80
2024/01/08 03:01:56;;;;;;;4.47;2.58;;;;;;;;;;5136944;27;20027;-80
2024/01/08 03:04:22;;;;;;;3.90;2.13;;;;;;;;;;5132586;27;20036;-80
2024/01/08 03:06:48;;;;;;;4.47;2.85;;;;;;;;;;5131258;27;20507;-80
2024/01/08 03:09:14;;;;;;;5.65;2.58;;;;;;;;;;5139310;27;20035;-80
2024/01/08 03:11:40;;;;;;;4.75;2.72;;;;;;;;;;5139906;27;20039;-79
2024/01/08 03:14:06;;;;;;;4.50;2.30;;;;;;;;;;5133590;27;20100;-80
2024/01/08 03:16:32;;;;;;;6.95;2.97;;;;;;;;;;5136870;27;20130;-80
2024/01/08 03:18:58;;;;;;;5.28;2.47;;;;;;;;;;5135145;27;20094;-80
2024/01/08 03:21:24;;;;;;;4.28;2.47;;;;;;;;;;5132473;27;20061;-79
2024/01/08 03:23:50;;;;;;;7.85;2.58;;;;;;;;;;5131143;27;20058;-79
2024/01/08 03:26:16;;;;;;;5.32;3.08;;;;;;;;;;5132707;27;20093;-80
2024/01/08 03:28:42;;;;;;;6.60;3.40;;;;;;;;;;5132218;27;20099;-80
2024/01/08 03:31:08;;;;;;;5.60;2.58;;;;;;;;;;5129602;27;20059;-80
2024/01/08 03:33:36;;;;;;;2.63;1.65;;;;;;;;;;5135044;27;20502;-79
2024/01/08 03:36:02;;;;;;;5.40;2.63;;;;;;;;;;5137088;27;20039;-79
2024/01/08 03:38:28;;;;;;;5.10;3.38;;;;;;;;;;5132519;27;20035;-80
2024/01/08 03:40:54;;;;;;;4.25;2.63;;;;;;;;;;5130705;27;20061;-79
2024/01/08 03:43:20;;;;;;;5.10;2.42;;;;;;;;;;5127369;27;20039;-79
2024/01/08 03:45:46;;;;;;;5.05;3.08;;;;;;;;;;5137487;27;20035;-80
2024/01/08 03:48:13;;;;;;;5.25;2.25;;;;;;;;;;5133794;27;20130;-80
2024/01/08 03:50:39;;;;;;;5.88;3.35;;;;;;;;;;5136758;27;20518;-80
2024/01/08 03:53:05;;;;;;;6.88;2.67;;;;;;;;;;5130968;27;20051;-80
2024/01/08 03:55:33;;;;;;;3.35;2.13;;;;;;;;;;5130814;27;20043;-80
2024/01/08 03:57:59;;;;;;;4.43;2.17;;;;;;;;;;5132546;27;20395;-79
2024/01/08 04:00:25;;;;;;;5.65;2.60;;;;;;;;;;5129099;27;20035;-79
2024/01/08 04:02:52;;;;;;;5.60;2.53;;;;;;;;;;5131158;27;20099;-79
2024/01/08 04:05:18;;;;;;;5.32;2.53;;;;;;;;;;5133786;27;20043;-79
2024/01/08 04:07:44;;;;;;;3.35;2.45;;;;;;;;;;5135234;27;20372;-79
2024/01/08 04:10:10;;;;;;;2.20;1.52;;;;;;;;;;5131259;27;20050;-80
2024/01/08 04:12:36;;;;;;;5.55;2.40;;;;;;;;;;5128271;27;20491;-79
2024/01/08 04:15:03;;;;;;;5.60;2.97;;;;;;;;;;5133324;27;20054;-80
2024/01/08 04:17:29;;;;;;;4.85;2.40;;;;;;;;;;5128632;27;20102;-79
2024/01/08 04:19:54;;;;;;;6.07;2.85;;;;;;;;;;5134629;27;20043;-80
2024/01/08 04:22:20;;;;;;;4.72;2.40;;;;;;;;;;5131548;27;20046;-79
2024/01/08 04:24:46;;;;;;;3.28;2.25;;;;;;;;;;5131183;27;20090;-79
2024/01/08 04:27:12;;;;;;;4.65;2.38;;;;;;;;;;5129893;27;20099;-79
2024/01/08 04:29:39;;;;;;;4.57;2.25;;;;;;;;;;5132930;27;20039;-79
2024/01/08 04:32:05;;;;;;;3.58;2.15;;;;;;;;;;5131535;27;20031;-79
2024/01/08 04:34:31;;;;;;;4.47;2.63;;;;;;;;;;5110781;27;20038;-79
2024/01/08 04:36:57;;;;;;;4.72;2.53;;;;;;;;;;5131143;27;20054;-79
2024/01/08 04:39:24;;;;;;;4.80;2.30;;;;;;;;;;5128945;27;20510;-79
2024/01/08 04:41:50;;;;;;;3.60;2.40;;;;;;;;;;5133144;27;20142;-79
2024/01/08 04:44:16;;;;;;;5.80;2.88;;;;;;;;;;5127158;27;20377;-79
2024/01/08 04:46:43;;;;;;;5.38;2.20;;;;;;;;;;5130939;27;20196;-79
2024/01/08 04:49:09;;;;;;;5.35;2.03;;;;;;;;;;5125440;27;20444;-80
2024/01/08 04:51:35;;;;;;;2.60;2.20;;;;;;;;;;5130164;27;20039;-80
2024/01/08 04:54:01;;;;;;;5.47;2.40;;;;;;;;;;5126642;27;20047;-79
2024/01/08 04:56:27;;;;;;;3.75;1.98;;;;;;;;;;5135259;27;20051;-80
2024/01/08 04:58:54;;;;;;;3.33;1.83;;;;;;;;;;5132465;27;20085;-79
2024/01/08 05:01:20;;;;;;;2.30;1.40;;;;;;;;;;5130942;27;20039;-80
2024/01/08 05:03:46;;;;;;;3.58;1.88;;;;;;;;;;5114342;27;20042;-80
2024/01/08 05:06:12;;;;;;;5.05;2.22;;;;;;;;;;5131102;27;20039;-79
2024/01/08 05:08:38;;;;;;;3.45;2.25;;;;;;;;;;5132426;27;20042;-79
2024/01/08 05:11:05;;;;;;;4.43;1.98;;;;;;;;;;5134748;27;20036;-79
2024/01/08 05:13:31;;;;;;;3.22;1.50;;;;;;;;;;5134068;27;20702;-79
2024/01/08 05:15:57;;;;;;;4.03;1.73;;;;;;;;;;5134440;27;20090;-79
2024/01/08 05:18:23;;;;;;;2.95;2.15;;;;;;;;;;5127297;27;20043;-80
2024/01/08 05:20:49;;;;;;;2.92;2.08;;;;;;;;;;5131224;27;20505;-80
2024/01/08 05:23:15;;;;;;;4.70;2.20;;;;;;;;;;5126629;27;20048;-80
2024/01/08 05:25:41;;;;;;;3.28;2.15;;;;;;;;;;5130876;27;20057;-80
2024/01/08 05:28:09;;;;;;;3.53;1.85;;;;;;;;;;5131398;27;20043;-80
2024/01/08 05:30:35;;;;;;;4.00;1.98;;;;;;;;;;5128931;27;20050;-80
2024/01/08 05:33:01;;;;;;;2.00;1.42;;;;;;;;;;5124358;27;20039;-80
2024/01/08 05:35:27;;;;;;;1.98;1.27;;;;;;;;;;5130982;27;20542;-80
2024/01/08 05:37:53;;;;;;;2.78;1.67;;;;;;;;;;5124934;27;20047;-80
2024/01/08 05:40:19;;;;;;;2.70;2.10;;;;;;;;;;5110539;27;20039;-80
2024/01/08 05:42:45;;;;;;;3.70;1.48;;;;;;;;;;5132851;27;20042;-80
2024/01/08 05:45:11;;;;;;;3.63;2.25;;;;;;;;;;5130288;27;20039;-80
2024/01/08 05:47:37;;;;;;;3.70;1.85;;;;;;;;;;5132053;27;20063;-79
2024/01/08 05:50:07;;;;;;;4.32;2.03;;;;;;;;;;5130737;27;20050;-80
2024/01/08 05:52:33;;;;;;;4.97;2.42;;;;;;;;;;5128397;27;20098;-80
2024/01/08 05:54:59;;;;;;;3.08;2.22;;;;;;;;;;5127501;27;20070;-80
2024/01/08 05:57:25;;;;;;;3.60;2.60;;;;;;;;;;5133487;27;20087;-80
2024/01/08 05:59:51;;;;;;;3.88;1.70;;;;;;;;;;5129219;27;20032;-80
2024/01/08 06:02:17;;;;;;;4.13;1.77;;;;;;;;;;5134498;27;20118;-80
2024/01/08 06:04:43;;;;;;;3.70;2.55;;;;;;;;;;5128319;27;20059;-80
2024/01/08 06:07:09;;;;;;;4.38;1.90;;;;;;;;;;5125325;27;20038;-80
2024/01/08 06:09:35;;;;;;;4.03;2.03;;;;;;;;;;5129005;27;20112;-80
2024/01/08 06:12:01;;;;;;;3.95;2.20;;;;;;;;;;5135051;27;20043;-78
2024/01/08 06:14:27;;;;;;;3.78;1.88;;;;;;;;;;5129507;28;20507;-80
2024/01/08 06:16:53;;;;;;;4.00;2.25;;;;;;;;;;5130737;28;20043;-79
2024/01/08 06:19:20;;;;;;;3.40;1.73;;;;;;;;;;5127769;27;20039;-82
2024/01/08 06:21:46;;;;;;;5.38;3.00;;;;;;;;;;5128302;28;20043;-82
2024/01/08 06:24:12;;;;;;;3.35;1.98;;;;;;;;;;5131099;28;20057;-82
2024/01/08 06:26:38;;;;;;;4.05;2.13;;;;;;;;;;5125096;28;20419;-82
2024/01/08 06:29:04;;;;;;;3.53;2.55;;;;;;;;;;5133050;27;20075;-82
2024/01/08 06:31:30;;;;;;;5.68;2.60;;;;;;;;;;5130537;27;20095;-82
2024/01/08 06:33:56;;;;;;;3.42;1.88;;;;;;;;;;5127682;28;20538;-82
2024/01/08 06:36:22;;;;;;;3.38;2.38;;;;;;;;;;5129815;27;20084;-82
2024/01/08 06:38:48;;;;;;;3.30;1.75;;;;;;;;;;5125443;28;20070;-82
2024/01/08 06:41:14;;;;;;;5.03;2.83;;;;;;;;;;5125728;28;20079;-83
2024/01/08 06:43:40;;;;;;;3.40;2.15;;;;;;;;;;5126864;28;20045;-82
2024/01/08 06:46:07;;;;;;;4.63;2.47;;;;;;;;;;5123787;28;20031;-82
2024/01/08 06:48:33;;;;;;;5.03;2.03;;;;;;;;;;5130420;27;20044;-83
2024/01/08 06:51:03;;;;;;;3.67;2.35;;;;;;;;;;5125626;28;20043;-82
2024/01/08 06:53:29;;;;;;;4.93;2.10;;;;;;;;;;5129204;28;20039;-83
2024/01/08 06:55:55;;;;;;;3.25;1.52;;;;;;;;;;5130422;27;20044;-82
2024/01/08 06:58:21;;;;;;;5.40;2.78;;;;;;;;;;5123853;28;20487;-82
2024/01/08 07:00:47;;;;;;;2.45;2.03;;;;;;;;;;5110435;28;20047;-84
2024/01/08 07:03:14;;;;;;;4.28;2.30;;;;;;;;;;5128864;28;20144;-82
2024/01/08 07:05:41;;;;;;;3.58;2.05;;;;;;;;;;5126598;27;20035;-83
2024/01/08 07:08:07;;;;;;;4.57;2.08;;;;;;;;;;5124353;28;20039;-83
2024/01/08 07:10:34;;;;;;;3.33;1.90;;;;;;;;;;5130795;27;20459;-82
2024/01/08 07:13:00;;;;;;;2.83;1.70;;;;;;;;;;5128631;27;20092;-82
2024/01/08 07:15:56;;;;;;;3.97;2.45;;;;;;;;;;5127660;27;20043;-82
2024/01/08 07:18:23;;;;;;;3.83;2.75;;;;;;;;;;5124927;27;20426;-82
2024/01/08 07:20:49;;;;;;;3.47;1.80;;;;;;;;;;5128688;27;20097;-83
2024/01/08 07:23:15;;;;;;;5.07;1.98;;;;;;;;;;5132260;27;20043;-82
2024/01/08 07:25:42;;;;;;;3.83;2.25;;;;;;;;;;5128792;27;20055;-82
2024/01/08 07:28:09;;;;;;;5.60;2.17;;;;;;;;;;5131713;27;20090;-81
2024/01/08 07:30:35;;;;;;;3.15;1.80;;;;;;;;;;5128720;27;20146;-82
2024/01/08 07:33:01;;;;;;;3.20;2.45;;;;;;;;;;5126733;27;20043;-82
2024/01/08 07:35:27;;;;;;;4.18;2.33;;;;;;;;;;5128801;27;20128;-82
2024/01/08 07:37:56;;;;;;;4.00;1.70;;;;;;;;;;5129994;27;20043;-81
2024/01/08 07:40:24;;;;;;;1.88;0.98;;;;;;;;;;5127928;27;20035;-81
2024/01/08 07:42:50;;;;;;;6.53;2.60;;;;;;;;;;5128243;27;20044;-82
2024/01/08 07:45:16;;;;;;;6.05;2.17;;;;;;;;;;5134716;27;20510;-82
2024/01/08 07:47:42;;;;;;;3.15;1.65;;;;;;;;;;5135261;27;20055;-82
2024/01/08 07:50:09;;;;;;;2.78;1.90;;;;;;;;;;5131583;27;20039;-82
2024/01/08 07:52:36;;;;;;;5.10;2.28;;;;;;;;;;5131907;27;20518;-82
2024/01/08 07:55:02;;;;;;;2.45;1.58;;;;;;;;;;5132104;27;20039;-82
2024/01/08 07:57:28;;;;;;;5.05;2.13;;;;;;;;;;5124563;27;20096;-82
2024/01/08 07:59:54;;;;;;;2.83;1.48;;;;;;;;;;5130439;27;20043;-81
2024/01/08 08:02:20;;;;;;;3.45;2.17;;;;;;;;;;5126886;27;20043;-82
2024/01/08 08:04:46;;;;;;;3.08;1.80;;;;;;;;;;5130373;27;20337;-82
2024/01/08 08:07:12;;;;;;;4.32;2.47;;;;;;;;;;5108409;27;20506;-82
2024/01/08 08:09:38;;;;;;;2.92;1.33;;;;;;;;;;5128956;27;20038;-82
2024/01/08 08:12:05;;;;;;;4.43;2.13;;;;;;;;;;5126803;27;20042;-83
2024/01/08 08:14:31;;;;;;;4.03;1.70;;;;;;;;;;5123954;27;20042;-83
2024/01/08 08:16:57;;;;;;;4.03;2.40;;;;;;;;;;5132200;27;20043;-82
2024/01/08 08:19:23;;;;;;;3.20;1.75;;;;;;;;;;5127750;27;20039;-82
2024/01/08 08:21:49;;;;;;;4.60;1.60;;;;;;;;;;5125920;27;20035;-82
2024/01/08 08:24:15;;;;;;;3.58;1.30;;;;;;;;;;5126336;27;20055;-82
2024/01/08 08:26:41;;;;;;;3.70;1.88;;;;;;;;;;5125041;27;20035;-82
2024/01/08 08:29:07;;;;;;;3.25;1.88;;;;;;;;;;5125320;27;20075;-82
2024/01/08 08:31:33;;;;;;;1.85;1.30;;;;;;;;;;5123161;27;20043;-79
2024/01/08 08:33:59;;;;;;;3.03;1.90;;;;;;;;;;5130265;27;20154;-78
2024/01/08 08:36:25;;;;;;;2.70;1.42;;;;;;;;;;5121340;27;20088;-79
2024/01/08 08:38:51;;;;;;;2.13;1.45;;;;;;;;;;5123220;27;20039;-80
2024/01/08 08:41:17;;;;;;;5.13;1.63;;;;;;;;;;5126649;27;20039;-80
2024/01/08 08:43:43;;;;;;;3.72;1.48;;;;;;;;;;5131430;27;20395;-83
2024/01/08 08:46:09;;;;;;;1.80;1.10;;;;;;;;;;5122495;27;20032;-82
2024/01/08 08:48:36;;;;;;;3.10;2.13;;;;;;;;;;5123646;27;20043;-82
2024/01/08 08:51:02;;;;;;;4.18;1.88;;;;;;;;;;5126645;27;20055;-82
2024/01/08 08:53:29;;;;;;;2.28;1.90;;;;;;;;;;5125444;27;20408;-83
2024/01/08 08:55:55;;;;;;;3.08;1.45;;;;;;;;;;5123873;27;20031;-82
2024/01/08 08:58:23;;;;;;;3.75;2.13;;;;;;;;;;5126766;27;20035;-81
2024/01/08 09:00:49;;;;;;;4.28;1.88;;;;;;;;;;5126511;27;20051;-80
2024/01/08 09:03:15;;;;;;;3.83;1.30;;;;;;;;;;5130128;27;20039;-81
2024/01/08 09:05:42;;;;;;;4.38;2.20;;;;;;;;;;5125455;27;20046;-80
2024/01/08 09:08:08;;;;;;;3.25;1.88;;;;;;;;;;5131806;27;20055;-79
2024/01/08 09:10:34;;;;;;;3.55;1.75;;;;;;;;;;5127596;27;20039;-80
2024/01/08 09:13:00;;;;;;;4.03;1.45;;;;;;;;;;5127784;27;20424;-81
2024/01/08 09:15:26;;;;;;;3.47;1.70;;;;;;;;;;5128273;27;20500;-81
2024/01/08 09:17:52;;;;;;;3.85;1.55;;;;;;;;;;5123939;27;20122;-81
2024/01/08 09:20:18;;;;;;;3.08;1.60;;;;;;;;;;5123942;27;20027;-81
2024/01/08 09:22:44;;;;;;;2.33;1.50;;;;;;;;;;5124090;27;20502;-81
2024/01/08 09:25:10;;;;;;;3.50;1.95;;;;;;;;;;5131416;27;20047;-81
2024/01/08 09:27:38;;;;;;;2.70;1.95;;;;;;;;;;5126251;27;20046;-81
2024/01/08 09:30:05;;;;;;;3.28;1.50;;;;;;;;;;5124856;27;20503;-81
2024/01/08 09:32:47;;;;;;;4.75;2.95;;;;;;;;;;5087189;27;20473;-82
2024/01/08 09:35:14;;;;;;;3.58;2.25;;;;;;;;;;5080082;28;20478;-80
2024/01/08 09:37:40;;;;;;;3.15;1.77;;;;;;;;;;5092914;28;20076;-82
2024/01/08 09:40:06;;;;;;;4.00;1.77;;;;;;;;;;5092446;28;20043;-82
2024/01/08 09:42:34;;;;;;;3.90;2.25;;;;;;;;;;5088165;28;20073;-82
2024/01/08 09:45:02;;;;;;;4.10;2.50;;;;;;;;;;5089551;28;20102;-82
2024/01/08 09:47:29;;;;;;;2.58;1.48;;;;;;;;;;5084989;28;20078;-81
2024/01/08 09:49:56;;;;;;;2.38;1.42;;;;;;;;;;5089800;28;20054;-82
2024/01/08 09:52:22;;;;;;;7.45;2.13;;;;;;;;;;5087899;28;20040;-81
2024/01/08 09:54:49;;;;;;;4.43;2.50;;;;;;;;;;5091967;28;20048;-81
2024/01/08 09:57:15;;;;;;;2.92;1.75;;;;;;;;;;5086351;28;20155;-81
2024/01/08 09:59:41;;;;;;;1.63;1.15;;;;;;;;;;5084033;28;20076;-82
2024/01/08 10:02:14;;;;;;;2.95;1.70;;;;;;;;;;5090381;28;20047;-82
2024/01/08 10:04:40;;;;;;;3.97;1.80;;;;;;;;;;5084156;28;20040;-82
2024/01/08 10:07:07;;;;;;;3.90;2.35;;;;;;;;;;5089256;28;20040;-82
2024/01/08 10:09:33;;;;;;;3.47;2.25;;;;;;;;;;5088434;28;20380;-82
2024/01/08 10:11:59;;;;;;;3.50;2.03;;;;;;;;;;5084360;28;20063;-83
2024/01/08 10:14:26;;;;;;;4.22;2.28;;;;;;;;;;5085855;28;20041;-83
2024/01/08 10:16:53;;;;;;;3.25;1.85;;;;;;;;;;5087648;28;20044;-82
2024/01/08 10:19:23;;;;;;;6.10;2.08;;;;;;;;;;5085264;28;20040;-83
2024/01/08 10:22:06;;;;;;;2.33;1.33;;;;;;;;;;5087825;28;20048;-83
2024/01/08 10:24:32;;;;;;;;;;;;;;;;;;5087050;28;20037;-84
2024/01/08 10:26:58;;;;;;;3.85;2.13;;;;;;;;;;5089465;28;19916;-83
2024/01/08 10:29:24;;;;;;;2.92;1.50;;;;;;;;;;5088309;28;20040;-83
2024/01/08 10:31:50;;;;;;;4.07;2.13;;;;;;;;;;5088035;28;20063;-85
2024/01/08 10:34:16;;;;;;;3.22;2.03;;;;;;;;;;5088414;28;20131;-83
2024/01/08 10:36:44;;;;;;;2.13;1.58;;;;;;;;;;5088353;28;20044;-82
2024/01/08 10:39:10;;;;;;;3.72;1.92;;;;;;;;;;5089070;28;20036;-83
2024/01/08 10:41:39;;;;;;;4.43;2.00;;;;;;;;;;5087925;28;20044;-83
2024/01/08 10:44:05;;;;;;;2.53;1.58;;;;;;;;;;5054309;28;20407;-83
2024/01/08 10:46:34;;;;;;;3.92;1.85;;;;;;;;;;5075953;28;20036;-82
2024/01/08 10:49:01;;;;;;;4.35;1.67;;;;;;;;;;5057130;28;20044;-84
2024/01/08 10:51:28;;;;;;;3.05;1.85;;;;;;;;;;5073992;28;20040;-86
2024/01/08 10:53:54;;;;;;;2.70;0.90;;;;;;;;;;5071273;28;20041;-83
2024/01/08 10:56:26;;;;;;;3.78;1.75;;;;;;;;;;5076483;28;20037;-82
2024/01/08 10:58:52;;;;;;;4.68;1.90;;;;;;;;;;5080873;28;20087;-83
2024/01/08 11:01:19;;;;;;;3.00;1.55;;;;;;;;;;5076156;28;20040;-83
2024/01/08 11:03:46;;;;;;;3.60;1.98;;;;;;;;;;5075933;28;20048;-81
2024/01/08 11:06:13;;;;;;;2.88;1.50;;;;;;;;;;5077043;28;20082;-82
2024/01/08 11:08:41;;;;;;;2.85;1.50;;;;;;;;;;5083986;28;20064;-82
2024/01/08 11:11:10;;;;;;;3.45;1.95;;;;;;;;;;5075998;28;20049;-80
2024/01/08 11:13:39;;;;;;;1.70;1.20;;;;;;;;;;5075456;28;20032;-82
2024/01/08 11:16:06;;;;;;;2.70;1.60;;;;;;;;;;5075642;28;20044;-83
2024/01/08 11:18:32;;;;;;;4.22;2.03;;;;;;;;;;5074296;28;20517;-84
2024/01/08 11:20:59;;;;;;;2.45;1.30;;;;;;;;;;5075935;28;20052;-82
2024/01/08 11:23:34;;;;;;;3.20;1.50;;;;;;;;;;5074988;28;20043;-80
2024/01/08 11:26:11;;;;;;;6.70;1.90;;;;;;;;;;5075728;28;20032;-81
2024/01/08 11:28:41;;;;;;;2.88;1.85;;;;;;;;;;5072843;28;20041;-80
2024/01/08 11:31:36;;;;;;;2.22;1.30;;;;;;;;;;5075114;28;20269;-83
2024/01/08 11:34:08;;;;;;;2.97;1.63;;;;;;;;;;5038718;28;20089;-83
2024/01/08 11:36:46;;;;;;;3.90;1.65;;;;;;;;;;5056264;28;20047;-82
2024/01/08 11:39:16;;;;;;;2.40;1.63;;;;;;;;;;5074688;28;20495;-83
2024/01/08 11:41:42;;;;;;;4.22;1.50;;;;;;;;;;5074005;28;20036;-85
2024/01/08 11:44:08;;;;;;;2.28;1.60;;;;;;;;;;5074200;28;20117;-83
2024/01/08 11:46:34;;;;;;;4.57;1.73;;;;;;;;;;5074721;28;20048;-82
2024/01/08 11:49:02;;;;;;;3.78;1.50;;;;;;;;;;5076797;28;20072;-83
2024/01/08 11:51:28;;;;;;;4.93;1.77;;;;;;;;;;5074779;28;20066;-83
2024/01/08 11:53:55;;;;;;;2.72;1.73;;;;;;;;;;5074049;28;20036;-83
2024/01/08 11:56:22;;;;;;;3.97;1.85;;;;;;;;;;5075826;28;20039;-83
2024/01/08 11:58:48;;;;;;;2.63;1.85;;;;;;;;;;5075008;28;20056;-82
2024/01/08 12:01:20;;;;;;;3.72;1.73;;;;;;;;;;5074065;28;20028;-81
2024/01/08 12:03:46;;;;;;;3.67;1.67;;;;;;;;;;5071321;28;20044;-83
2024/01/08 12:06:13;;;;;;;2.60;1.50;;;;;;;;;;5072222;28;20055;-82
2024/01/08 12:08:39;;;;;;;2.78;1.42;;;;;;;;;;5070732;28;20048;-82
2024/01/08 12:11:05;;;;;;;3.67;1.77;;;;;;;;;;5071605;28;20070;-83
2024/01/08 12:13:31;;;;;;;2.55;1.58;;;;;;;;;;5070294;28;20499;-83
2024/01/08 12:15:57;;;;;;;3.45;1.92;;;;;;;;;;5071950;28;20062;-86
2024/01/08 12:18:24;;;;;;;2.75;1.55;;;;;;;;;;5064349;28;20041;-84
2024/01/08 12:20:50;;;;;;;2.60;2.05;;;;;;;;;;5071374;28;20491;-86
2024/01/08 12:23:16;;;;;;;3.60;1.70;;;;;;;;;;5074277;28;20134;-84
2024/01/08 12:25:43;;;;;;;3.35;2.15;;;;;;;;;;5065866;28;20083;-84
2024/01/08 12:28:09;;;;;;;3.50;1.83;;;;;;;;;;5054689;28;20119;-85
2024/01/08 12:30:35;;;;;;;2.83;2.05;;;;;;;;;;5070165;28;20036;-84
2024/01/08 12:33:04;;;;;;;3.85;1.88;;;;;;;;;;5068102;28;20063;-84
2024/01/08 12:35:30;;;;;;;3.15;1.60;;;;;;;;;;5071429;28;20041;-83
2024/01/08 12:37:56;;;;;;;3.40;1.75;;;;;;;;;;5073129;28;20032;-84
2024/01/08 12:40:22;;;;;;;4.55;2.17;;;;;;;;;;5068855;28;20058;-83
2024/01/08 12:42:48;;;;;;;3.20;1.88;;;;;;;;;;5074861;28;20063;-83
2024/01/08 12:45:15;;;;;;;3.35;2.15;;;;;;;;;;5056008;28;20067;-84
2024/01/08 12:47:41;;;;;;;3.88;2.22;;;;;;;;;;5073112;28;20044;-83
2024/01/08 12:50:07;;;;;;;3.40;1.95;;;;;;;;;;5072579;28;20040;-83
2024/01/08 12:52:33;;;;;;;2.78;1.70;;;;;;;;;;5072749;28;20051;-84
2024/01/08 12:54:59;;;;;;;1.80;1.50;;;;;;;;;;5072264;28;20036;-84
2024/01/08 12:57:29;;;;;;;3.58;1.98;;;;;;;;;;5073230;28;20119;-82
2024/01/08 12:59:56;;;;;;;2.33;1.80;;;;;;;;;;5074988;28;20044;-85
2024/01/08 13:02:23;;;;;;;3.33;2.05;;;;;;;;;;5073254;28;20036;-84
2024/01/08 13:04:52;;;;;;;2.80;1.65;;;;;;;;;;5056931;28;20041;-82
2024/01/08 13:07:18;;;;;;;5.38;2.30;;;;;;;;;;5075602;28;20040;-82
2024/01/08 13:09:45;;;;;;;2.88;2.13;;;;;;;;;;5074909;28;20405;-82
2024/01/08 13:12:11;;;;;;;3.70;2.35;;;;;;;;;;5074192;28;20043;-83
2024/01/08 13:14:37;;;;;;;3.78;1.80;;;;;;;;;;5071613;28;20041;-84
2024/01/08 13:17:03;;;;;;;3.88;2.03;;;;;;;;;;5071291;28;20064;-84
2024/01/08 13:19:35;;;;;;;2.33;1.33;;;;;;;;;;5067971;28;20040;-83
2024/01/08 13:22:02;;;;;;;2.70;1.55;;;;;;;;;;5068767;28;20045;-83
2024/01/08 13:24:28;;;;;;;3.80;1.85;;;;;;;;;;5072044;28;20066;-82
2024/01/08 13:26:54;;;;;;;1.92;1.33;;;;;;;;;;5070691;28;20131;-83
2024/01/08 13:29:20;;;;;;;3.67;1.85;;;;;;;;;;5071059;28;20044;-83
2024/01/08 13:31:46;;;;;;;2.00;1.65;;;;;;;;;;5071863;28;20141;-83
2024/01/08 13:34:12;;;;;;;3.42;1.95;;;;;;;;;;5073071;28;20425;-82
2024/01/08 13:36:39;;;;;;;2.10;1.73;;;;;;;;;;5071193;28;20033;-83
2024/01/08 13:39:05;;;;;;;4.20;1.50;;;;;;;;;;5067895;28;20037;-83
2024/01/08 13:41:33;;;;;;;1.90;1.30;;;;;;;;;;5073052;28;20056;-83
2024/01/08 13:44:01;;;;;;;2.15;1.63;;;;;;;;;;5071802;28;20549;-83
2024/01/08 13:46:27;;;;;;;3.63;1.70;;;;;;;;;;5069880;28;20510;-83
2024/01/08 13:48:53;;;;;;;3.13;1.90;;;;;;;;;;5072106;28;20040;-83
2024/01/08 13:51:20;;;;;;;2.92;1.17;;;;;;;;;;5071823;28;20044;-82
2024/01/08 13:53:46;;;;;;;2.78;1.60;;;;;;;;;;5075188;28;20044;-83
2024/01/08 13:56:12;;;;;;;3.05;1.27;;;;;;;;;;5071522;28;20052;-82
2024/01/08 13:58:38;;;;;;;3.17;1.55;;;;;;;;;;5068174;28;20380;-83
2024/01/08 14:01:05;;;;;;;2.90;1.63;;;;;;;;;;5051295;28;20052;-83
2024/01/08 14:03:31;;;;;;;2.97;1.42;;;;;;;;;;5070135;28;20108;-83
2024/01/08 14:05:57;;;;;;;2.25;1.80;;;;;;;;;;5071878;28;20372;-83
2024/01/08 14:08:23;;;;;;;2.47;1.40;;;;;;;;;;5067808;28;20125;-83
2024/01/08 14:10:50;;;;;;;2.72;1.65;;;;;;;;;;5072418;28;20043;-83
2024/01/08 14:13:16;;;;;;;3.47;2.63;;;;;;;;;;5066806;28;20474;-83
2024/01/08 14:15:42;;;;;;;3.67;1.67;;;;;;;;;;5055113;28;20114;-82
2024/01/08 14:18:08;;;;;;;2.75;1.33;;;;;;;;;;5057304;28;20037;-84
2024/01/08 14:20:34;;;;;;;3.58;1.60;;;;;;;;;;5073279;28;20090;-81
2024/01/08 14:23:00;;;;;;;2.80;1.58;;;;;;;;;;5077982;28;20095;-83
2024/01/08 14:25:26;;;;;;;2.60;1.52;;;;;;;;;;5078101;28;20032;-82
2024/01/08 14:27:52;;;;;;;2.50;1.15;;;;;;;;;;5073170;28;20044;-84
2024/01/08 14:30:18;;;;;;;3.30;1.80;;;;;;;;;;5072956;28;20052;-82
2024/01/08 14:32:45;;;;;;;2.78;1.67;;;;;;;;;;5078789;28;20059;-83
2024/01/08 14:35:11;;;;;;;3.13;1.67;;;;;;;;;;5077920;28;20047;-83
2024/01/08 14:37:41;;;;;;;2.95;1.48;;;;;;;;;;5068625;28;20078;-83
2024/01/08 14:40:09;;;;;;;3.75;1.27;;;;;;;;;;5077725;28;20053;-83